Harrisville, MI

2:19 PM EDT on July 29, 2015 (GMT -0400)
KMIOSCOD3 | | Change Station
CLOSE
Current Station
Personal Weather Station
Location: On the Beach , North of Oscoda, MI
Elevation: 582 ft
Nearby Weather Stations

Elev 582 ft 44.51 °N, 83.32 °W | Updated 25 seconds ago

Overcast
Overcast
80.2 °F
Feels Like 84 °F
N
6.9
Wind Variable Wind from SSE
Gusts 6.9 mph

Today
High -- | Low -- °F
--% Chance of Precip.
Yesterday
High -- | Low -- °F
Precip. -- in
6:16 AM 9:02 PM
Waxing Gibbous, 96% visible
Pressure 29.84 in
Visibility 10.0 miles
Clouds Overcast 6500 ft
Heat Index 84 °F
Dew Point 72 °F
Humidity 75%
Rainfall 0.00 in
Snow Depth Not available.
UV 3 out of 12
Pollen 5.20 out of 12
Air Quality Not available.
Flu Activity Not available.
METAR KOSC 291813Z AUTO 17007KT 120V190 10SM OVC065 28/21 A2984 RMK AO2 T02810212

More Conditions Fewer Conditions

Pressure 29.84 in
Visibility 10.0 miles
Clouds Overcast 6500 ft
Heat Index 84 °F
Dew Point 72 °F
Humidity 75%
Rainfall 0.00 in
Snow Depth Not available.
UV 3 out of 12
Pollen 5.20 out of 12
Air Quality Not available.
Flu Activity Not available.
METAR KOSC 291813Z AUTO 17007KT 120V190 10SM OVC065 28/21 A2984 RMK AO2 T02810212

More Conditions Fewer Conditions

Nowcast | as of 2:00 PM EDT on July 29, 2015

At 3 PM...cloudy. Scattered showers and isolated thunderstorms. Temperature 84. Southwest winds 11 mph. At 5 PM...cloudy. Temperature 83. West winds 10 mph. At 7 PM...clear. Temperature 81. West winds 11 mph. At 9 PM...clear. Temperature 76. West winds 10 mph.

×

10-Day Weather Forecast

×

Almanac

Astronomy

Jul. 29, 2015 Rise Set
Actual Time
Civil Twilight
Nautical Twilight
Astronomical Twilight
Moon
Length of Visible Light
Length of Day
Tomorrow will be .
, % of the Moon is Illuminated

Today's Extremes

State Highs State Lows

Community

WunderPhotos

Upload Photos

1,842,141 photos uploaded!

WunderBlogs® & News

Nearby

Air Quality

  Air Quality AQ Index Pollutant
Not available.

Snow Depth

Station Depth Elevation

Earthquake Activity

City Distance Mag. Time & Date
Minimum magnitude displayed is 2.5.

Coastal Water Temperatures

Place Temperature

Stations

Nearby Weather Stations

Station Location Temp. Windchill Dew Point Humidity Wind Precip. Elev Updated Type